sensor_id;sensor_type;location;lat;lon;timestamp;temperature;humidity
27540;DHT22;15906;52.046;4.724;2023-03-01T00:02:17;1.80;99.90
27540;DHT22;15906;52.046;4.724;2023-03-01T00:04:42;1.80;99.90
27540;DHT22;15906;52.046;4.724;2023-03-01T00:07:08;1.80;99.90
27540;DHT22;15906;52.046;4.724;2023-03-01T00:09:35;1.80;99.90
27540;DHT22;15906;52.046;4.724;2023-03-01T00:12:00;1.80;99.90
27540;DHT22;15906;52.046;4.724;2023-03-01T00:14:26;1.70;99.90
27540;DHT22;15906;52.046;4.724;2023-03-01T00:16:51;1.70;99.90
27540;DHT22;15906;52.046;4.724;2023-03-01T00:19:19;1.70;99.90
27540;DHT22;15906;52.046;4.724;2023-03-01T00:21:45;1.70;99.90
27540;DHT22;15906;52.046;4.724;2023-03-01T00:24:11;1.70;99.90
27540;DHT22;15906;52.046;4.724;2023-03-01T00:26:37;1.70;99.90
27540;DHT22;15906;52.046;4.724;2023-03-01T00:29:03;1.70;99.90
27540;DHT22;15906;52.046;4.724;2023-03-01T00:31:30;1.80;99.90
27540;DHT22;15906;52.046;4.724;2023-03-01T00:33:58;1.70;99.90
27540;DHT22;15906;52.046;4.724;2023-03-01T00:36:26;1.80;99.90
27540;DHT22;15906;52.046;4.724;2023-03-01T00:38:52;1.70;99.90
27540;DHT22;15906;52.046;4.724;2023-03-01T00:41:20;1.60;99.90
27540;DHT22;15906;52.046;4.724;2023-03-01T00:43:45;1.60;99.90
27540;DHT22;15906;52.046;4.724;2023-03-01T00:46:13;1.60;99.90
27540;DHT22;15906;52.046;4.724;2023-03-01T00:48:40;1.60;99.90
27540;DHT22;15906;52.046;4.724;2023-03-01T00:51:12;1.60;99.90
27540;DHT22;15906;52.046;4.724;2023-03-01T00:53:38;1.60;99.90
27540;DHT22;15906;52.046;4.724;2023-03-01T00:56:05;1.50;99.90
27540;DHT22;15906;52.046;4.724;2023-03-01T00:58:31;1.50;99.90
27540;DHT22;15906;52.046;4.724;2023-03-01T01:00:57;1.50;99.90
27540;DHT22;15906;52.046;4.724;2023-03-01T01:03:23;1.50;99.90
27540;DHT22;15906;52.046;4.724;2023-03-01T01:05:51;1.50;99.90
27540;DHT22;15906;52.046;4.724;2023-03-01T01:08:16;1.50;99.90
27540;DHT22;15906;52.046;4.724;2023-03-01T01:10:44;1.50;99.90
27540;DHT22;15906;52.046;4.724;2023-03-01T01:13:10;1.40;99.90
27540;DHT22;15906;52.046;4.724;2023-03-01T01:15:35;1.40;99.90
27540;DHT22;15906;52.046;4.724;2023-03-01T01:18:01;1.30;99.90
27540;DHT22;15906;52.046;4.724;2023-03-01T01:20:27;1.40;99.90
27540;DHT22;15906;52.046;4.724;2023-03-01T01:22:53;1.40;99.90
27540;DHT22;15906;52.046;4.724;2023-03-01T01:25:19;1.40;99.90
27540;DHT22;15906;52.046;4.724;2023-03-01T01:27:44;1.40;99.90
27540;DHT22;15906;52.046;4.724;2023-03-01T01:30:10;1.40;99.90
27540;DHT22;15906;52.046;4.724;2023-03-01T01:32:36;1.30;99.90
27540;DHT22;15906;52.046;4.724;2023-03-01T01:35:01;1.30;99.90
27540;DHT22;15906;52.046;4.724;2023-03-01T01:37:27;1.30;99.90
27540;DHT22;15906;52.046;4.724;2023-03-01T01:39:57;1.30;99.90
27540;DHT22;15906;52.046;4.724;2023-03-01T01:42:24;1.20;99.90
27540;DHT22;15906;52.046;4.724;2023-03-01T01:47:51;1.20;99.90
27540;DHT22;15906;52.046;4.724;2023-03-01T01:50:18;1.20;99.90
27540;DHT22;15906;52.046;4.724;2023-03-01T01:52:45;1.20;99.90
27540;DHT22;15906;52.046;4.724;2023-03-01T01:55:17;1.20;99.90
27540;DHT22;15906;52.046;4.724;2023-03-01T01:57:54;1.10;99.90
27540;DHT22;15906;52.046;4.724;2023-03-01T02:00:27;1.10;99.90
27540;DHT22;15906;52.046;4.724;2023-03-01T02:03:00;1.10;99.90
27540;DHT22;15906;52.046;4.724;2023-03-01T02:05:58;1.10;99.90
27540;DHT22;15906;52.046;4.724;2023-03-01T02:08:30;1.10;99.90
27540;DHT22;15906;52.046;4.724;2023-03-01T02:10:58;1.10;99.90
27540;DHT22;15906;52.046;4.724;2023-03-01T02:13:25;1.10;99.90
27540;DHT22;15906;52.046;4.724;2023-03-01T02:15:51;1.10;99.90
27540;DHT22;15906;52.046;4.724;2023-03-01T02:18:18;1.10;99.90
27540;DHT22;15906;52.046;4.724;2023-03-01T02:23:23;1.00;99.90
27540;DHT22;15906;52.046;4.724;2023-03-01T02:26:09;1.00;99.90
27540;DHT22;15906;52.046;4.724;2023-03-01T02:28:38;1.00;99.90
27540;DHT22;15906;52.046;4.724;2023-03-01T02:31:07;1.00;99.90
27540;DHT22;15906;52.046;4.724;2023-03-01T02:33:53;1.00;99.90
27540;DHT22;15906;52.046;4.724;2023-03-01T02:36:24;1.00;99.90
27540;DHT22;15906;52.046;4.724;2023-03-01T02:38:54;0.90;99.90
27540;DHT22;15906;52.046;4.724;2023-03-01T02:41:21;0.90;99.90
27540;DHT22;15906;52.046;4.724;2023-03-01T02:43:48;0.90;99.90
27540;DHT22;15906;52.046;4.724;2023-03-01T02:46:18;0.90;99.90
27540;DHT22;15906;52.046;4.724;2023-03-01T02:48:48;0.90;99.90
27540;DHT22;15906;52.046;4.724;2023-03-01T02:57:22;0.80;99.90
27540;DHT22;15906;52.046;4.724;2023-03-01T02:59:48;0.80;99.90
27540;DHT22;15906;52.046;4.724;2023-03-01T03:02:24;0.80;99.90
27540;DHT22;15906;52.046;4.724;2023-03-01T03:05:22;0.70;99.90
27540;DHT22;15906;52.046;4.724;2023-03-01T03:07:49;0.70;99.90
27540;DHT22;15906;52.046;4.724;2023-03-01T03:10:21;0.60;99.90
27540;DHT22;15906;52.046;4.724;2023-03-01T03:12:59;0.60;99.90
27540;DHT22;15906;52.046;4.724;2023-03-01T03:15:26;0.60;99.90
27540;DHT22;15906;52.046;4.724;2023-03-01T03:17:52;0.50;99.90
27540;DHT22;15906;52.046;4.724;2023-03-01T03:20:20;0.40;99.90
27540;DHT22;15906;52.046;4.724;2023-03-01T03:22:49;0.50;99.90
27540;DHT22;15906;52.046;4.724;2023-03-01T03:25:15;0.50;99.90
27540;DHT22;15906;52.046;4.724;2023-03-01T03:27:43;0.50;99.90
27540;DHT22;15906;52.046;4.724;2023-03-01T03:30:11;0.50;99.90
27540;DHT22;15906;52.046;4.724;2023-03-01T03:32:41;0.50;99.90
27540;DHT22;15906;52.046;4.724;2023-03-01T03:35:09;0.50;99.90
27540;DHT22;15906;52.046;4.724;2023-03-01T03:37:41;0.50;99.90
27540;DHT22;15906;52.046;4.724;2023-03-01T03:40:27;0.40;99.90
27540;DHT22;15906;52.046;4.724;2023-03-01T03:42:52;0.40;99.90
27540;DHT22;15906;52.046;4.724;2023-03-01T03:45:18;0.40;99.90
27540;DHT22;15906;52.046;4.724;2023-03-01T03:47:44;0.40;99.90
27540;DHT22;15906;52.046;4.724;2023-03-01T03:50:14;0.40;99.90
27540;DHT22;15906;52.046;4.724;2023-03-01T03:52:41;0.40;99.90
27540;DHT22;15906;52.046;4.724;2023-03-01T03:55:09;0.40;99.90
27540;DHT22;15906;52.046;4.724;2023-03-01T03:57:35;0.40;99.90
27540;DHT22;15906;52.046;4.724;2023-03-01T04:00:01;0.30;99.90
27540;DHT22;15906;52.046;4.724;2023-03-01T04:02:30;0.30;99.90
27540;DHT22;15906;52.046;4.724;2023-03-01T04:04:55;0.30;99.90
27540;DHT22;15906;52.046;4.724;2023-03-01T04:07:21;0.30;99.90
27540;DHT22;15906;52.046;4.724;2023-03-01T04:09:46;0.30;99.90
27540;DHT22;15906;52.046;4.724;2023-03-01T04:12:12;0.30;99.90
27540;DHT22;15906;52.046;4.724;2023-03-01T04:14:37;0.30;99.90
27540;DHT22;15906;52.046;4.724;2023-03-01T04:17:03;0.30;99.90
27540;DHT22;15906;52.046;4.724;2023-03-01T04:19:31;0.20;99.90
27540;DHT22;15906;52.046;4.724;2023-03-01T04:22:02;0.20;99.90
27540;DHT22;15906;52.046;4.724;2023-03-01T04:24:33;0.10;99.90
27540;DHT22;15906;52.046;4.724;2023-03-01T04:26:58;0.10;99.90
27540;DHT22;15906;52.046;4.724;2023-03-01T04:29:24;0.10;99.90
27540;DHT22;15906;52.046;4.724;2023-03-01T04:31:49;0.10;99.90
27540;DHT22;15906;52.046;4.724;2023-03-01T04:34:15;0.00;99.90
27540;DHT22;15906;52.046;4.724;2023-03-01T04:36:40;0.00;99.90
27540;DHT22;15906;52.046;4.724;2023-03-01T04:39:06;0.00;99.90
27540;DHT22;15906;52.046;4.724;2023-03-01T04:41:38;-0.10;99.90
27540;DHT22;15906;52.046;4.724;2023-03-01T04:44:05;-0.10;99.90
27540;DHT22;15906;52.046;4.724;2023-03-01T04:46:30;-0.10;99.90
27540;DHT22;15906;52.046;4.724;2023-03-01T04:48:56;-0.10;99.90
27540;DHT22;15906;52.046;4.724;2023-03-01T04:51:21;-0.20;99.90
27540;DHT22;15906;52.046;4.724;2023-03-01T04:53:47;-0.10;99.90
27540;DHT22;15906;52.046;4.724;2023-03-01T04:56:13;-0.10;99.90
27540;DHT22;15906;52.046;4.724;2023-03-01T04:58:39;-0.10;99.90
27540;DHT22;15906;52.046;4.724;2023-03-01T05:01:14;-0.10;99.90
27540;DHT22;15906;52.046;4.724;2023-03-01T05:03:42;-0.20;99.90
27540;DHT22;15906;52.046;4.724;2023-03-01T05:06:08;-0.10;99.90
27540;DHT22;15906;52.046;4.724;2023-03-01T05:08:34;-0.10;99.90
27540;DHT22;15906;52.046;4.724;2023-03-01T05:11:02;-0.20;99.90
27540;DHT22;15906;52.046;4.724;2023-03-01T05:13:27;-0.20;99.90
27540;DHT22;15906;52.046;4.724;2023-03-01T05:15:57;-0.20;99.90
27540;DHT22;15906;52.046;4.724;2023-03-01T05:18:24;-0.20;99.90
27540;DHT22;15906;52.046;4.724;2023-03-01T05:21:05;-0.20;99.90
27540;DHT22;15906;52.046;4.724;2023-03-01T05:23:31;-0.20;99.90
27540;DHT22;15906;52.046;4.724;2023-03-01T05:25:58;-0.20;99.90
27540;DHT22;15906;52.046;4.724;2023-03-01T05:28:25;-0.20;99.90
27540;DHT22;15906;52.046;4.724;2023-03-01T05:30:51;-0.20;99.90
27540;DHT22;15906;52.046;4.724;2023-03-01T05:33:17;-0.30;99.90
27540;DHT22;15906;52.046;4.724;2023-03-01T05:35:44;-0.30;99.90
27540;DHT22;15906;52.046;4.724;2023-03-01T05:38:12;-0.30;99.90
27540;DHT22;15906;52.046;4.724;2023-03-01T05:40:41;-0.30;99.90
27540;DHT22;15906;52.046;4.724;2023-03-01T05:43:07;-0.30;99.90
27540;DHT22;15906;52.046;4.724;2023-03-01T05:45:35;-0.30;99.90
27540;DHT22;15906;52.046;4.724;2023-03-01T05:48:01;-0.30;99.90
27540;DHT22;15906;52.046;4.724;2023-03-01T05:50:29;-0.30;99.90
27540;DHT22;15906;52.046;4.724;2023-03-01T05:53:04;-0.40;99.90
27540;DHT22;15906;52.046;4.724;2023-03-01T05:55:34;-0.40;99.90
27540;DHT22;15906;52.046;4.724;2023-03-01T05:58:01;-0.40;99.90
27540;DHT22;15906;52.046;4.724;2023-03-01T06:00:28;-0.40;99.90
27540;DHT22;15906;52.046;4.724;2023-03-01T06:02:55;-0.40;99.90
27540;DHT22;15906;52.046;4.724;2023-03-01T06:05:21;-0.50;99.90
27540;DHT22;15906;52.046;4.724;2023-03-01T06:07:47;-0.50;99.90
27540;DHT22;15906;52.046;4.724;2023-03-01T06:10:14;-0.50;99.90
27540;DHT22;15906;52.046;4.724;2023-03-01T06:12:41;-0.50;99.90
27540;DHT22;15906;52.046;4.724;2023-03-01T06:15:08;-0.60;99.90
27540;DHT22;15906;52.046;4.724;2023-03-01T06:17:36;-0.60;99.90
27540;DHT22;15906;52.046;4.724;2023-03-01T06:22:32;-0.60;99.90
27540;DHT22;15906;52.046;4.724;2023-03-01T06:24:58;-0.70;99.90
27540;DHT22;15906;52.046;4.724;2023-03-01T06:27:24;-0.70;99.90
27540;DHT22;15906;52.046;4.724;2023-03-01T06:29:49;-0.70;99.90
27540;DHT22;15906;52.046;4.724;2023-03-01T06:32:15;-0.70;99.90
27540;DHT22;15906;52.046;4.724;2023-03-01T06:34:41;-0.70;99.90
27540;DHT22;15906;52.046;4.724;2023-03-01T06:37:07;-0.80;99.90
27540;DHT22;15906;52.046;4.724;2023-03-01T06:39:33;-0.70;99.90
27540;DHT22;15906;52.046;4.724;2023-03-01T06:41:59;-0.80;99.90
27540;DHT22;15906;52.046;4.724;2023-03-01T06:44:25;-0.80;99.90
27540;DHT22;15906;52.046;4.724;2023-03-01T06:46:50;-0.80;99.90
27540;DHT22;15906;52.046;4.724;2023-03-01T06:49:16;-0.90;99.90
27540;DHT22;15906;52.046;4.724;2023-03-01T06:51:43;-0.80;99.90
27540;DHT22;15906;52.046;4.724;2023-03-01T06:54:09;-0.80;99.90
27540;DHT22;15906;52.046;4.724;2023-03-01T06:56:35;-0.80;99.90
27540;DHT22;15906;52.046;4.724;2023-03-01T06:59:01;-0.80;99.90
27540;DHT22;15906;52.046;4.724;2023-03-01T07:01:28;-0.80;99.90
27540;DHT22;15906;52.046;4.724;2023-03-01T07:03:53;-0.70;99.90
27540;DHT22;15906;52.046;4.724;2023-03-01T07:06:19;-0.60;99.90
27540;DHT22;15906;52.046;4.724;2023-03-01T07:08:45;-0.60;99.90
27540;DHT22;15906;52.046;4.724;2023-03-01T07:11:12;-0.70;99.90
27540;DHT22;15906;52.046;4.724;2023-03-01T07:13:37;-0.60;99.90
27540;DHT22;15906;52.046;4.724;2023-03-01T07:16:03;-0.60;99.90
27540;DHT22;15906;52.046;4.724;2023-03-01T07:18:29;-0.50;99.90
27540;DHT22;15906;52.046;4.724;2023-03-01T07:20:54;-0.50;99.90
27540;DHT22;15906;52.046;4.724;2023-03-01T07:23:20;-0.50;99.90
27540;DHT22;15906;52.046;4.724;2023-03-01T07:25:52;-0.60;99.90
27540;DHT22;15906;52.046;4.724;2023-03-01T07:28:18;-0.50;99.90
27540;DHT22;15906;52.046;4.724;2023-03-01T07:30:44;-0.50;99.90
27540;DHT22;15906;52.046;4.724;2023-03-01T07:33:10;-0.50;99.90
27540;DHT22;15906;52.046;4.724;2023-03-01T07:35:35;-0.40;99.90
27540;DHT22;15906;52.046;4.724;2023-03-01T07:38:01;-0.40;99.90
27540;DHT22;15906;52.046;4.724;2023-03-01T07:40:26;-0.40;99.90
27540;DHT22;15906;52.046;4.724;2023-03-01T07:42:56;-0.30;99.90
27540;DHT22;15906;52.046;4.724;2023-03-01T07:45:22;-0.20;99.90
27540;DHT22;15906;52.046;4.724;2023-03-01T07:47:47;-0.20;99.90
27540;DHT22;15906;52.046;4.724;2023-03-01T07:50:13;-0.10;99.90
27540;DHT22;15906;52.046;4.724;2023-03-01T07:52:39;0.00;99.90
27540;DHT22;15906;52.046;4.724;2023-03-01T07:55:04;0.20;99.90
27540;DHT22;15906;52.046;4.724;2023-03-01T07:57:30;0.20;99.90
27540;DHT22;15906;52.046;4.724;2023-03-01T07:59:56;0.10;99.90
27540;DHT22;15906;52.046;4.724;2023-03-01T08:02:22;0.10;99.90
27540;DHT22;15906;52.046;4.724;2023-03-01T08:04:47;0.40;99.90
27540;DHT22;15906;52.046;4.724;2023-03-01T08:07:13;0.50;99.90
27540;DHT22;15906;52.046;4.724;2023-03-01T08:09:39;0.50;99.90
27540;DHT22;15906;52.046;4.724;2023-03-01T08:12:05;0.60;99.90
27540;DHT22;15906;52.046;4.724;2023-03-01T08:14:32;0.60;99.90
27540;DHT22;15906;52.046;4.724;2023-03-01T08:16:57;0.60;99.90
27540;DHT22;15906;52.046;4.724;2023-03-01T08:19:23;0.70;99.90
27540;DHT22;15906;52.046;4.724;2023-03-01T08:21:49;0.80;99.90
27540;DHT22;15906;52.046;4.724;2023-03-01T08:24:14;0.90;99.90
27540;DHT22;15906;52.046;4.724;2023-03-01T08:26:40;1.00;99.90
27540;DHT22;15906;52.046;4.724;2023-03-01T08:29:06;1.00;99.90
27540;DHT22;15906;52.046;4.724;2023-03-01T08:31:37;1.10;99.90
27540;DHT22;15906;52.046;4.724;2023-03-01T08:34:07;1.20;99.90
27540;DHT22;15906;52.046;4.724;2023-03-01T08:36:36;1.40;99.90
27540;DHT22;15906;52.046;4.724;2023-03-01T08:39:04;1.40;99.90
27540;DHT22;15906;52.046;4.724;2023-03-01T08:41:30;1.40;99.90
27540;DHT22;15906;52.046;4.724;2023-03-01T08:43:56;1.70;99.90
27540;DHT22;15906;52.046;4.724;2023-03-01T08:46:28;1.70;99.90
27540;DHT22;15906;52.046;4.724;2023-03-01T08:48:54;1.80;99.90
27540;DHT22;15906;52.046;4.724;2023-03-01T08:51:21;1.80;99.90
27540;DHT22;15906;52.046;4.724;2023-03-01T08:53:47;2.00;99.90
27540;DHT22;15906;52.046;4.724;2023-03-01T08:56:13;2.00;99.90
27540;DHT22;15906;52.046;4.724;2023-03-01T08:58:38;2.20;99.90
27540;DHT22;15906;52.046;4.724;2023-03-01T09:01:09;2.40;99.90
27540;DHT22;15906;52.046;4.724;2023-03-01T09:03:36;2.50;99.90
27540;DHT22;15906;52.046;4.724;2023-03-01T09:06:03;2.70;99.90
27540;DHT22;15906;52.046;4.724;2023-03-01T09:08:29;2.90;99.90
27540;DHT22;15906;52.046;4.724;2023-03-01T09:10:55;3.20;99.90
27540;DHT22;15906;52.046;4.724;2023-03-01T09:13:21;3.50;99.90
27540;DHT22;15906;52.046;4.724;2023-03-01T09:15:49;3.80;99.90
27540;DHT22;15906;52.046;4.724;2023-03-01T09:18:14;4.10;99.90
27540;DHT22;15906;52.046;4.724;2023-03-01T09:20:40;4.50;99.90
27540;DHT22;15906;52.046;4.724;2023-03-01T09:23:06;4.90;99.90
27540;DHT22;15906;52.046;4.724;2023-03-01T09:25:32;5.10;99.90
27540;DHT22;15906;52.046;4.724;2023-03-01T09:27:59;5.30;99.90
27540;DHT22;15906;52.046;4.724;2023-03-01T09:30:24;5.60;99.90
27540;DHT22;15906;52.046;4.724;2023-03-01T09:32:50;6.00;99.90
27540;DHT22;15906;52.046;4.724;2023-03-01T09:35:15;6.20;99.90
27540;DHT22;15906;52.046;4.724;2023-03-01T09:37:41;6.50;99.90
27540;DHT22;15906;52.046;4.724;2023-03-01T09:40:15;6.70;99.90
27540;DHT22;15906;52.046;4.724;2023-03-01T09:42:54;6.90;99.90
27540;DHT22;15906;52.046;4.724;2023-03-01T09:45:35;7.10;99.90
27540;DHT22;15906;52.046;4.724;2023-03-01T09:48:04;7.30;99.90
27540;DHT22;15906;52.046;4.724;2023-03-01T09:50:39;7.30;99.90
27540;DHT22;15906;52.046;4.724;2023-03-01T09:53:13;7.60;99.90
27540;DHT22;15906;52.046;4.724;2023-03-01T09:55:55;7.70;99.90
27540;DHT22;15906;52.046;4.724;2023-03-01T10:01:01;7.60;99.90
27540;DHT22;15906;52.046;4.724;2023-03-01T10:03:41;7.50;99.90
27540;DHT22;15906;52.046;4.724;2023-03-01T10:06:23;7.40;99.90
27540;DHT22;15906;52.046;4.724;2023-03-01T10:09:10;7.80;99.90
27540;DHT22;15906;52.046;4.724;2023-03-01T10:11:41;8.20;99.90
27540;DHT22;15906;52.046;4.724;2023-03-01T10:14:33;8.30;99.90
27540;DHT22;15906;52.046;4.724;2023-03-01T10:17:04;8.40;99.90
27540;DHT22;15906;52.046;4.724;2023-03-01T10:19:34;8.40;99.90
27540;DHT22;15906;52.046;4.724;2023-03-01T10:22:18;8.50;99.90
27540;DHT22;15906;52.046;4.724;2023-03-01T10:24:46;8.80;99.90
27540;DHT22;15906;52.046;4.724;2023-03-01T10:27:17;8.90;99.90
27540;DHT22;15906;52.046;4.724;2023-03-01T10:32:22;9.10;99.90
27540;DHT22;15906;52.046;4.724;2023-03-01T10:34:48;9.00;99.90
27540;DHT22;15906;52.046;4.724;2023-03-01T10:37:18;8.90;99.90
27540;DHT22;15906;52.046;4.724;2023-03-01T10:42:29;8.90;99.90
27540;DHT22;15906;52.046;4.724;2023-03-01T10:44:56;8.80;99.90
27540;DHT22;15906;52.046;4.724;2023-03-01T10:47:26;9.00;99.90
27540;DHT22;15906;52.046;4.724;2023-03-01T10:50:04;9.30;99.90
27540;DHT22;15906;52.046;4.724;2023-03-01T10:52:36;9.20;99.90
27540;DHT22;15906;52.046;4.724;2023-03-01T10:55:30;9.10;99.90
27540;DHT22;15906;52.046;4.724;2023-03-01T10:58:18;9.20;99.90
27540;DHT22;15906;52.046;4.724;2023-03-01T11:01:00;9.00;99.90
27540;DHT22;15906;52.046;4.724;2023-03-01T11:03:33;9.10;99.90
27540;DHT22;15906;52.046;4.724;2023-03-01T11:08:32;9.50;99.90
27540;DHT22;15906;52.046;4.724;2023-03-01T11:11:09;9.70;99.90
27540;DHT22;15906;52.046;4.724;2023-03-01T11:16:34;9.50;99.90
27540;DHT22;15906;52.046;4.724;2023-03-01T11:21:33;9.60;99.90
27540;DHT22;15906;52.046;4.724;2023-03-01T11:24:01;9.20;99.90
27540;DHT22;15906;52.046;4.724;2023-03-01T11:26:30;9.00;99.90
27540;DHT22;15906;52.046;4.724;2023-03-01T11:29:02;8.70;99.50
27540;DHT22;15906;52.046;4.724;2023-03-01T11:31:29;8.60;99.70
27540;DHT22;15906;52.046;4.724;2023-03-01T11:33:58;8.90;99.90
27540;DHT22;15906;52.046;4.724;2023-03-01T11:39:33;9.20;99.10
27540;DHT22;15906;52.046;4.724;2023-03-01T11:42:14;9.30;99.20
27540;DHT22;15906;52.046;4.724;2023-03-01T11:44:42;9.60;98.40
27540;DHT22;15906;52.046;4.724;2023-03-01T11:50:01;9.40;98.30
27540;DHT22;15906;52.046;4.724;2023-03-01T11:52:41;9.40;97.80
27540;DHT22;15906;52.046;4.724;2023-03-01T11:58:14;8.90;96.30
27540;DHT22;15906;52.046;4.724;2023-03-01T12:22:32;9.60;98.00
27540;DHT22;15906;52.046;4.724;2023-03-01T12:49:16;9.60;95.80
27540;DHT22;15906;52.046;4.724;2023-03-01T12:51:56;9.60;97.20
27540;DHT22;15906;52.046;4.724;2023-03-01T12:54:31;9.70;97.60
27540;DHT22;15906;52.046;4.724;2023-03-01T12:57:02;9.80;97.70
27540;DHT22;15906;52.046;4.724;2023-03-01T12:59:47;9.50;97.30
27540;DHT22;15906;52.046;4.724;2023-03-01T13:02:43;9.40;98.20
27540;DHT22;15906;52.046;4.724;2023-03-01T13:05:24;9.80;99.10
27540;DHT22;15906;52.046;4.724;2023-03-01T13:07:58;10.20;98.30
27540;DHT22;15906;52.046;4.724;2023-03-01T13:10:58;9.90;97.20
27540;DHT22;15906;52.046;4.724;2023-03-01T13:13:27;9.90;97.30
27540;DHT22;15906;52.046;4.724;2023-03-01T13:15:53;10.00;96.80
27540;DHT22;15906;52.046;4.724;2023-03-01T13:20:47;10.10;97.60
27540;DHT22;15906;52.046;4.724;2023-03-01T13:23:27;10.10;96.10
27540;DHT22;15906;52.046;4.724;2023-03-01T13:26:10;9.70;96.60
27540;DHT22;15906;52.046;4.724;2023-03-01T13:44:30;10.00;97.10
27540;DHT22;15906;52.046;4.724;2023-03-01T13:46:59;10.10;96.60
27540;DHT22;15906;52.046;4.724;2023-03-01T13:49:29;9.80;95.70
27540;DHT22;15906;52.046;4.724;2023-03-01T13:51:56;9.60;96.70
27540;DHT22;15906;52.046;4.724;2023-03-01T13:54:29;9.40;96.70
27540;DHT22;15906;52.046;4.724;2023-03-01T13:56:57;9.40;98.50
27540;DHT22;15906;52.046;4.724;2023-03-01T13:59:23;9.50;97.60
27540;DHT22;15906;52.046;4.724;2023-03-01T14:01:56;9.60;97.80
27540;DHT22;15906;52.046;4.724;2023-03-01T14:04:32;9.40;97.10
27540;DHT22;15906;52.046;4.724;2023-03-01T14:07:22;9.40;97.20
27540;DHT22;15906;52.046;4.724;2023-03-01T14:09:54;9.30;97.00
27540;DHT22;15906;52.046;4.724;2023-03-01T14:15:34;9.00;97.50
27540;DHT22;15906;52.046;4.724;2023-03-01T14:18:28;8.80;97.60
27540;DHT22;15906;52.046;4.724;2023-03-01T14:20:55;8.60;98.20
27540;DHT22;15906;52.046;4.724;2023-03-01T14:23:22;8.50;98.60
27540;DHT22;15906;52.046;4.724;2023-03-01T14:25:55;8.50;98.60
27540;DHT22;15906;52.046;4.724;2023-03-01T14:28:32;8.40;98.10
27540;DHT22;15906;52.046;4.724;2023-03-01T14:31:00;8.40;98.00
27540;DHT22;15906;52.046;4.724;2023-03-01T14:33:36;8.30;98.40
27540;DHT22;15906;52.046;4.724;2023-03-01T14:36:06;8.20;99.00
27540;DHT22;15906;52.046;4.724;2023-03-01T14:41:11;8.20;97.80
27540;DHT22;15906;52.046;4.724;2023-03-01T14:43:45;8.10;98.00
27540;DHT22;15906;52.046;4.724;2023-03-01T14:46:28;8.10;98.60
27540;DHT22;15906;52.046;4.724;2023-03-01T14:49:20;8.00;98.60
27540;DHT22;15906;52.046;4.724;2023-03-01T14:52:07;7.90;99.10
27540;DHT22;15906;52.046;4.724;2023-03-01T14:54:46;7.80;99.00
27540;DHT22;15906;52.046;4.724;2023-03-01T14:57:15;7.80;99.10
27540;DHT22;15906;52.046;4.724;2023-03-01T14:59:42;7.70;99.00
27540;DHT22;15906;52.046;4.724;2023-03-01T15:02:13;7.60;98.80
27540;DHT22;15906;52.046;4.724;2023-03-01T15:04:44;7.60;99.70
27540;DHT22;15906;52.046;4.724;2023-03-01T15:07:13;7.60;99.00
27540;DHT22;15906;52.046;4.724;2023-03-01T15:09:39;7.60;98.60
27540;DHT22;15906;52.046;4.724;2023-03-01T15:14:56;7.60;99.50
27540;DHT22;15906;52.046;4.724;2023-03-01T15:17:33;7.50;99.60
27540;DHT22;15906;52.046;4.724;2023-03-01T15:20:05;7.50;99.10
27540;DHT22;15906;52.046;4.724;2023-03-01T15:22:32;7.50;99.40
27540;DHT22;15906;52.046;4.724;2023-03-01T15:24:57;7.50;99.70
27540;DHT22;15906;52.046;4.724;2023-03-01T15:27:25;7.50;99.00
27540;DHT22;15906;52.046;4.724;2023-03-01T15:29:57;7.40;99.40
27540;DHT22;15906;52.046;4.724;2023-03-01T15:32:35;7.40;99.50
27540;DHT22;15906;52.046;4.724;2023-03-01T15:38:26;7.40;99.10
27540;DHT22;15906;52.046;4.724;2023-03-01T15:40:53;7.40;99.20
27540;DHT22;15906;52.046;4.724;2023-03-01T15:43:44;7.50;99.30
27540;DHT22;15906;52.046;4.724;2023-03-01T15:48:49;7.60;99.10
27540;DHT22;15906;52.046;4.724;2023-03-01T15:51:18;7.60;99.40
27540;DHT22;15906;52.046;4.724;2023-03-01T15:53:51;7.70;99.50
27540;DHT22;15906;52.046;4.724;2023-03-01T15:56:18;7.70;98.70
27540;DHT22;15906;52.046;4.724;2023-03-01T15:58:43;7.70;98.70
27540;DHT22;15906;52.046;4.724;2023-03-01T16:01:15;7.60;98.90
27540;DHT22;15906;52.046;4.724;2023-03-01T16:03:44;7.50;99.10
27540;DHT22;15906;52.046;4.724;2023-03-01T16:06:10;7.60;99.30
27540;DHT22;15906;52.046;4.724;2023-03-01T16:08:37;7.60;98.80
27540;DHT22;15906;52.046;4.724;2023-03-01T16:11:04;7.40;99.30
27540;DHT22;15906;52.046;4.724;2023-03-01T16:13:31;7.20;99.20
27540;DHT22;15906;52.046;4.724;2023-03-01T16:15:58;7.20;98.80
27540;DHT22;15906;52.046;4.724;2023-03-01T16:18:24;7.10;99.90
27540;DHT22;15906;52.046;4.724;2023-03-01T16:20:49;7.10;99.60
27540;DHT22;15906;52.046;4.724;2023-03-01T16:23:15;7.10;99.90
27540;DHT22;15906;52.046;4.724;2023-03-01T16:25:40;7.00;99.90
27540;DHT22;15906;52.046;4.724;2023-03-01T16:28:07;7.00;99.90
27540;DHT22;15906;52.046;4.724;2023-03-01T16:30:36;6.90;99.90
27540;DHT22;15906;52.046;4.724;2023-03-01T16:33:03;6.90;99.90
27540;DHT22;15906;52.046;4.724;2023-03-01T16:35:32;6.90;99.90
27540;DHT22;15906;52.046;4.724;2023-03-01T16:37:59;6.80;99.90
27540;DHT22;15906;52.046;4.724;2023-03-01T16:40:27;6.80;99.90
27540;DHT22;15906;52.046;4.724;2023-03-01T16:42:54;6.80;99.90
27540;DHT22;15906;52.046;4.724;2023-03-01T16:45:25;6.70;99.90
27540;DHT22;15906;52.046;4.724;2023-03-01T16:47:52;6.60;99.90
27540;DHT22;15906;52.046;4.724;2023-03-01T16:50:17;6.60;99.90
27540;DHT22;15906;52.046;4.724;2023-03-01T16:52:43;6.60;99.90
27540;DHT22;15906;52.046;4.724;2023-03-01T16:55:09;6.50;99.90
27540;DHT22;15906;52.046;4.724;2023-03-01T16:57:36;6.50;99.90
27540;DHT22;15906;52.046;4.724;2023-03-01T17:00:07;6.50;99.90
27540;DHT22;15906;52.046;4.724;2023-03-01T17:02:35;6.30;99.90
27540;DHT22;15906;52.046;4.724;2023-03-01T17:05:01;6.30;99.90
27540;DHT22;15906;52.046;4.724;2023-03-01T17:07:28;6.20;99.90
27540;DHT22;15906;52.046;4.724;2023-03-01T17:09:53;6.10;99.90
27540;DHT22;15906;52.046;4.724;2023-03-01T17:12:19;6.10;99.90
27540;DHT22;15906;52.046;4.724;2023-03-01T17:14:44;6.00;99.90
27540;DHT22;15906;52.046;4.724;2023-03-01T17:17:11;6.00;99.90
27540;DHT22;15906;52.046;4.724;2023-03-01T17:19:37;5.90;99.90
27540;DHT22;15906;52.046;4.724;2023-03-01T17:22:09;5.80;99.90
27540;DHT22;15906;52.046;4.724;2023-03-01T17:24:36;5.80;99.90
27540;DHT22;15906;52.046;4.724;2023-03-01T17:27:02;5.70;99.90
27540;DHT22;15906;52.046;4.724;2023-03-01T17:29:28;5.70;99.90
27540;DHT22;15906;52.046;4.724;2023-03-01T17:31:54;5.70;99.90
27540;DHT22;15906;52.046;4.724;2023-03-01T17:34:21;5.50;99.90
27540;DHT22;15906;52.046;4.724;2023-03-01T17:36:47;5.50;99.90
27540;DHT22;15906;52.046;4.724;2023-03-01T17:39:15;5.40;99.90
27540;DHT22;15906;52.046;4.724;2023-03-01T17:41:41;5.40;99.90
27540;DHT22;15906;52.046;4.724;2023-03-01T17:44:07;5.30;99.90
27540;DHT22;15906;52.046;4.724;2023-03-01T17:46:33;5.30;99.90
27540;DHT22;15906;52.046;4.724;2023-03-01T17:48:58;5.30;99.90
27540;DHT22;15906;52.046;4.724;2023-03-01T17:51:24;5.20;99.90
27540;DHT22;15906;52.046;4.724;2023-03-01T17:53:49;5.10;99.90